Time;durP1;ratioP1;P1;durP2;ratioP2;P2;SDS_P1;SDS_P2;PMS_P1;PMS_P2;Temp;Humidity;BMP_temperature;BMP_pressure;BME280_temperature;BME280_humidity;BME280_pressure;Samples;Min_cycle;Max_cycle;Signal;HPM_P1;HPM_P2
2021/04/11 00:00:57;;;;;;;7.50;5.50;;;;;;;;;;4975881;28;20595;-64
2021/04/11 00:03:25;;;;;;;10.40;7.80;;;;;;;;;;4976568;28;20459;-63
2021/04/11 00:05:52;;;;;;;10.40;7.80;;;;;;;;;;4975362;28;20509;-63
2021/04/11 00:08:20;;;;;;;8.77;7.87;;;;;;;;;;4976358;28;20451;-63
2021/04/11 00:10:47;;;;;;;10.90;8.80;;;;;;;;;;4974746;28;21056;-63
2021/04/11 00:13:15;;;;;;;10.60;8.30;;;;;;;;;;4976381;28;20942;-63
2021/04/11 00:15:42;;;;;;;11.70;8.40;;;;;;;;;;4973329;28;20538;-63
2021/04/11 00:18:09;;;;;;;14.47;10.37;;;;;;;;;;4975392;28;20938;-63
2021/04/11 00:20:36;;;;;;;12.20;10.90;;;;;;;;;;4965340;28;20550;-62
2021/04/11 00:23:03;;;;;;;11.97;10.60;;;;;;;;;;4971718;28;20460;-63
2021/04/11 00:25:32;;;;;;;15.80;11.50;;;;;;;;;;4967754;28;20467;-63
2021/04/11 00:27:59;;;;;;;19.83;12.40;;;;;;;;;;4975207;28;20833;-63
2021/04/11 00:30:26;;;;;;;13.87;12.27;;;;;;;;;;4974125;28;20448;-63
2021/04/11 00:32:55;;;;;;;18.03;13.67;;;;;;;;;;4963253;28;20451;-63
2021/04/11 00:35:21;;;;;;;16.03;14.33;;;;;;;;;;4974884;28;20479;-63
2021/04/11 00:37:48;;;;;;;19.17;14.77;;;;;;;;;;4971259;28;20448;-63
2021/04/11 00:40:18;;;;;;;20.03;15.40;;;;;;;;;;4964848;28;20451;-62
2021/04/11 00:42:47;;;;;;;18.13;15.20;;;;;;;;;;4966296;28;20868;-63
2021/04/11 00:45:16;;;;;;;15.90;14.20;;;;;;;;;;4963467;28;20490;-63
2021/04/11 00:47:43;;;;;;;23.77;16.13;;;;;;;;;;4963782;28;20523;-63
2021/04/11 00:50:12;;;;;;;18.20;15.17;;;;;;;;;;4975550;28;20457;-63
2021/04/11 00:52:39;;;;;;;19.23;16.50;;;;;;;;;;4974845;28;20502;-63
2021/04/11 00:55:06;;;;;;;17.80;15.53;;;;;;;;;;4973909;28;20523;-63
2021/04/11 00:57:33;;;;;;;22.63;17.93;;;;;;;;;;4971959;28;20531;-63
2021/04/11 01:00:01;;;;;;;17.90;14.80;;;;;;;;;;4958157;28;20506;-63
2021/04/11 01:02:28;;;;;;;21.53;18.00;;;;;;;;;;4964504;28;20531;-63
2021/04/11 01:04:54;;;;;;;22.37;18.30;;;;;;;;;;4973503;28;20549;-63
2021/04/11 01:07:21;;;;;;;20.77;17.43;;;;;;;;;;4972232;28;20452;-63
2021/04/11 01:09:49;;;;;;;22.90;19.60;;;;;;;;;;4975093;28;20447;-63
2021/04/11 01:12:17;;;;;;;25.50;19.83;;;;;;;;;;4974510;28;20487;-63
2021/04/11 01:14:44;;;;;;;26.10;22.03;;;;;;;;;;4972259;28;20551;-65
2021/04/11 01:17:13;;;;;;;23.27;20.43;;;;;;;;;;4974901;28;20448;-63
2021/04/11 01:19:41;;;;;;;25.63;20.73;;;;;;;;;;4973854;28;20458;-64
2021/04/11 01:22:11;;;;;;;27.37;23.90;;;;;;;;;;4956959;28;20457;-63
2021/04/11 01:24:39;;;;;;;31.70;23.70;;;;;;;;;;4971483;28;20475;-63
2021/04/11 01:27:07;;;;;;;33.00;25.07;;;;;;;;;;4957123;28;20460;-63
2021/04/11 01:29:34;;;;;;;30.00;24.07;;;;;;;;;;4968787;28;20594;-63
2021/04/11 01:32:01;;;;;;;33.43;25.33;;;;;;;;;;4961455;28;20579;-63
2021/04/11 01:34:28;;;;;;;31.60;27.70;;;;;;;;;;4971558;28;20476;-63
2021/04/11 01:36:55;;;;;;;33.07;28.77;;;;;;;;;;4974175;28;20486;-64
2021/04/11 01:39:24;;;;;;;33.33;27.53;;;;;;;;;;4973480;28;20459;-64
2021/04/11 01:41:53;;;;;;;24.50;21.77;;;;;;;;;;4957379;28;20452;-64
2021/04/11 01:44:21;;;;;;;32.43;27.47;;;;;;;;;;4970307;28;21045;-63
2021/04/11 01:46:48;;;;;;;35.73;30.63;;;;;;;;;;4955035;28;20506;-63
2021/04/11 01:49:15;;;;;;;34.47;28.00;;;;;;;;;;4968737;28;20470;-63
2021/04/11 01:51:46;;;;;;;36.93;29.50;;;;;;;;;;4954974;28;20484;-62
2021/04/11 01:54:14;;;;;;;37.43;30.90;;;;;;;;;;4967303;28;20848;-64
2021/04/11 01:56:41;;;;;;;33.93;30.03;;;;;;;;;;4973241;28;20452;-64
2021/04/11 01:59:10;;;;;;;38.33;32.27;;;;;;;;;;4974102;28;20459;-63
2021/04/11 02:01:36;;;;;;;37.90;30.30;;;;;;;;;;4973524;28;20451;-63
2021/04/11 02:04:04;;;;;;;37.87;30.43;;;;;;;;;;4972286;28;20843;-64
2021/04/11 02:06:34;;;;;;;37.43;29.67;;;;;;;;;;4972774;28;21035;-64
2021/04/11 02:09:02;;;;;;;39.67;30.40;;;;;;;;;;4971340;28;20450;-63
2021/04/11 02:11:28;;;;;;;34.73;29.77;;;;;;;;;;4973402;28;20570;-65
2021/04/11 02:13:55;;;;;;;35.07;28.93;;;;;;;;;;4973651;28;21233;-64
2021/04/11 02:16:24;;;;;;;36.63;31.83;;;;;;;;;;4971466;28;20447;-64
2021/04/11 02:18:58;;;;;;;35.93;30.40;;;;;;;;;;4972601;28;20459;-64
2021/04/11 02:21:24;;;;;;;40.97;31.53;;;;;;;;;;4957066;28;20440;-64
2021/04/11 02:23:51;;;;;;;39.30;33.80;;;;;;;;;;4961852;28;20472;-64
2021/04/11 02:26:18;;;;;;;43.77;31.03;;;;;;;;;;4954002;28;20975;-64
2021/04/11 02:28:44;;;;;;;40.40;31.30;;;;;;;;;;4969617;28;20451;-63
2021/04/11 02:31:19;;;;;;;39.77;32.03;;;;;;;;;;4964200;28;20484;-64
2021/04/11 02:34:02;;;;;;;47.10;34.00;;;;;;;;;;4962181;28;20471;-65
2021/04/11 02:36:29;;;;;;;42.10;35.40;;;;;;;;;;4972346;28;20514;-63
2021/04/11 02:38:57;;;;;;;39.33;31.87;;;;;;;;;;4969089;28;20543;-64
2021/04/11 02:41:25;;;;;;;42.40;33.07;;;;;;;;;;4973024;28;20448;-63
2021/04/11 02:43:52;;;;;;;41.23;33.90;;;;;;;;;;4971614;28;20491;-63
2021/04/11 02:46:19;;;;;;;37.60;33.13;;;;;;;;;;4972347;28;20538;-64
2021/04/11 02:48:45;;;;;;;42.37;34.93;;;;;;;;;;4972805;28;20498;-63
2021/04/11 02:51:13;;;;;;;43.67;33.80;;;;;;;;;;4972335;28;20491;-64
2021/04/11 02:53:40;;;;;;;44.10;34.13;;;;;;;;;;4971578;28;20480;-63
2021/04/11 02:56:07;;;;;;;41.93;33.07;;;;;;;;;;4963410;28;20971;-64
2021/04/11 02:58:34;;;;;;;50.70;36.80;;;;;;;;;;4955030;28;20583;-62
2021/04/11 03:01:02;;;;;;;44.77;35.10;;;;;;;;;;4957415;28;20968;-64
2021/04/11 03:03:29;;;;;;;51.20;38.17;;;;;;;;;;4960065;28;20483;-63
2021/04/11 03:05:56;;;;;;;47.37;39.10;;;;;;;;;;4954236;28;20457;-64
2021/04/11 03:08:26;;;;;;;52.47;41.43;;;;;;;;;;4969769;28;20456;-64
2021/04/11 03:10:55;;;;;;;49.53;40.23;;;;;;;;;;4967184;28;20484;-63
2021/04/11 03:13:22;;;;;;;54.53;42.30;;;;;;;;;;4967845;28;20952;-63
2021/04/11 03:15:50;;;;;;;55.10;41.87;;;;;;;;;;4953602;28;21022;-64
2021/04/11 03:18:17;;;;;;;54.23;42.93;;;;;;;;;;4967272;28;20542;-63
2021/04/11 03:20:44;;;;;;;52.40;40.87;;;;;;;;;;4971537;28;20463;-64
2021/04/11 03:23:12;;;;;;;52.50;40.20;;;;;;;;;;4972328;28;20976;-64
2021/04/11 03:25:40;;;;;;;49.87;41.53;;;;;;;;;;4972888;28;20475;-64
2021/04/11 03:28:10;;;;;;;54.30;44.30;;;;;;;;;;4971011;28;20455;-66
2021/04/11 03:30:41;;;;;;;58.47;43.70;;;;;;;;;;4973023;28;20535;-65
2021/04/11 03:33:09;;;;;;;52.23;42.40;;;;;;;;;;4971160;28;20447;-64
2021/04/11 03:35:38;;;;;;;54.60;43.40;;;;;;;;;;4972133;28;20486;-64
2021/04/11 03:38:06;;;;;;;53.13;42.67;;;;;;;;;;4972181;28;20470;-63
2021/04/11 03:40:34;;;;;;;55.67;44.33;;;;;;;;;;4973064;28;20447;-65
2021/04/11 03:43:04;;;;;;;56.53;44.43;;;;;;;;;;4972504;28;20579;-64
2021/04/11 03:45:32;;;;;;;55.90;43.57;;;;;;;;;;5004590;23;20730;-67
2021/04/11 03:48:01;;;;;;;56.67;46.53;;;;;;;;;;4988654;28;20454;-68
2021/04/11 03:50:29;;;;;;;56.20;43.47;;;;;;;;;;4991679;28;20546;-68
2021/04/11 03:52:57;;;;;;;60.60;45.97;;;;;;;;;;4991194;28;20998;-68
2021/04/11 03:55:29;;;;;;;63.20;47.97;;;;;;;;;;4990232;28;20553;-66
2021/04/11 03:57:58;;;;;;;60.43;48.63;;;;;;;;;;4991328;28;20446;-68
2021/04/11 04:00:27;;;;;;;61.93;47.40;;;;;;;;;;4990322;28;20458;-67
2021/04/11 04:02:55;;;;;;;58.70;45.33;;;;;;;;;;4972635;28;20458;-66
2021/04/11 04:05:23;;;;;;;61.63;47.43;;;;;;;;;;4980742;28;20478;-68
2021/04/11 04:07:51;;;;;;;66.13;58.30;;;;;;;;;;4991667;28;20972;-67
2021/04/11 04:10:19;;;;;;;67.20;56.77;;;;;;;;;;4990880;28;20459;-66
2021/04/11 04:13:07;;;;;;;66.43;56.07;;;;;;;;;;4985046;28;20471;-67
2021/04/11 04:15:37;;;;;;;66.00;56.63;;;;;;;;;;4984466;28;20957;-67
2021/04/11 04:18:12;;;;;;;69.43;58.50;;;;;;;;;;4991794;28;21140;-68
2021/04/11 04:20:41;;;;;;;64.33;57.03;;;;;;;;;;4984971;28;20468;-66
2021/04/11 04:23:12;;;;;;;74.03;58.67;;;;;;;;;;4986708;28;20978;-68
2021/04/11 04:25:46;;;;;;;69.03;59.07;;;;;;;;;;4972371;28;20518;-68
2021/04/11 04:28:18;;;;;;;63.40;54.93;;;;;;;;;;4980202;28;20660;-66
2021/04/11 04:30:52;;;;;;;66.13;57.73;;;;;;;;;;4992067;28;20496;-67
2021/04/11 04:33:22;;;;;;;67.10;56.07;;;;;;;;;;4988546;28;20463;-67
2021/04/11 04:35:52;;;;;;;65.73;58.50;;;;;;;;;;4982890;28;20475;-67
2021/04/11 04:38:21;;;;;;;67.20;59.67;;;;;;;;;;4979697;28;20457;-67
2021/04/11 04:40:51;;;;;;;65.70;58.60;;;;;;;;;;4993034;28;20508;-68
2021/04/11 04:43:21;;;;;;;67.27;59.97;;;;;;;;;;4984848;28;20590;-68
2021/04/11 04:45:55;;;;;;;67.53;60.10;;;;;;;;;;4992802;28;20489;-68
2021/04/11 04:48:24;;;;;;;67.07;58.87;;;;;;;;;;4992606;28;20443;-67
2021/04/11 04:50:54;;;;;;;69.47;62.27;;;;;;;;;;4994876;28;20450;-69
2021/04/11 04:53:23;;;;;;;77.03;66.80;;;;;;;;;;4989870;28;20454;-69
2021/04/11 04:55:51;;;;;;;77.20;64.40;;;;;;;;;;4983855;28;20475;-68
2021/04/11 04:58:20;;;;;;;75.33;64.40;;;;;;;;;;4983863;28;20454;-68
2021/04/11 05:00:51;;;;;;;72.40;61.60;;;;;;;;;;4985051;28;20456;-68
2021/04/11 05:03:18;;;;;;;77.77;65.30;;;;;;;;;;4991084;28;20455;-67
2021/04/11 05:05:54;;;;;;;78.83;66.20;;;;;;;;;;4993315;28;20561;-68
2021/04/11 05:08:22;;;;;;;80.63;69.30;;;;;;;;;;4990050;28;20439;-68
2021/04/11 05:10:50;;;;;;;82.93;68.87;;;;;;;;;;4975555;28;20509;-68
2021/04/11 05:13:19;;;;;;;75.87;67.67;;;;;;;;;;4987890;28;20454;-69
2021/04/11 05:15:49;;;;;;;78.43;69.70;;;;;;;;;;4986438;28;20475;-69
2021/04/11 05:18:19;;;;;;;77.47;69.07;;;;;;;;;;4994369;28;20481;-68
2021/04/11 05:20:51;;;;;;;78.43;68.03;;;;;;;;;;4994163;28;20455;-68
2021/04/11 05:23:20;;;;;;;81.03;69.07;;;;;;;;;;4983196;28;20456;-68
2021/04/11 05:25:49;;;;;;;86.13;70.47;;;;;;;;;;4975626;28;20851;-68
2021/04/11 05:28:20;;;;;;;87.10;73.40;;;;;;;;;;4976116;28;20542;-68
2021/04/11 05:30:48;;;;;;;82.53;69.73;;;;;;;;;;4986609;28;20509;-68
2021/04/11 05:33:17;;;;;;;92.07;76.23;;;;;;;;;;4995068;28;20518;-68
2021/04/11 05:35:44;;;;;;;89.27;73.97;;;;;;;;;;4992058;28;20481;-68
2021/04/11 05:38:23;;;;;;;90.13;73.37;;;;;;;;;;4994861;28;20451;-68
2021/04/11 05:40:53;;;;;;;90.37;72.63;;;;;;;;;;4986336;28;20447;-67
2021/04/11 05:43:24;;;;;;;84.40;74.43;;;;;;;;;;4974958;28;21063;-68
2021/04/11 05:45:55;;;;;;;95.20;77.73;;;;;;;;;;4977025;28;20558;-67
2021/04/11 05:48:24;;;;;;;98.00;80.03;;;;;;;;;;4982645;28;20465;-68
2021/04/11 05:50:56;;;;;;;88.50;71.67;;;;;;;;;;4983027;28;20486;-67
2021/04/11 05:53:25;;;;;;;91.17;75.23;;;;;;;;;;4975842;28;20479;-68
2021/04/11 05:55:54;;;;;;;94.37;78.73;;;;;;;;;;4994107;28;20478;-68
2021/04/11 05:58:22;;;;;;;98.67;81.77;;;;;;;;;;4979995;28;20465;-69
2021/04/11 06:00:51;;;;;;;93.80;79.33;;;;;;;;;;4993502;28;20457;-67
2021/04/11 06:03:20;;;;;;;94.60;79.17;;;;;;;;;;4990666;28;21058;-68
2021/04/11 06:05:52;;;;;;;94.50;83.27;;;;;;;;;;4991186;28;20572;-68
2021/04/11 06:08:23;;;;;;;97.40;79.20;;;;;;;;;;4992809;28;20465;-67
2021/04/11 06:10:55;;;;;;;96.47;79.93;;;;;;;;;;4991984;28;20451;-68
2021/04/11 06:13:24;;;;;;;98.13;80.43;;;;;;;;;;4993306;28;20450;-68
2021/04/11 06:15:53;;;;;;;107.43;87.07;;;;;;;;;;4980823;28;20475;-68
2021/04/11 06:18:20;;;;;;;95.10;82.40;;;;;;;;;;4987017;28;20458;-68
2021/04/11 06:20:47;;;;;;;89.13;79.67;;;;;;;;;;4984400;28;20454;-69
2021/04/11 06:23:19;;;;;;;93.47;80.50;;;;;;;;;;4992372;28;20451;-67
2021/04/11 06:25:49;;;;;;;92.30;79.10;;;;;;;;;;4992851;28;21057;-66
2021/04/11 06:28:21;;;;;;;94.30;78.60;;;;;;;;;;4993492;28;20453;-68
2021/04/11 06:30:54;;;;;;;94.27;80.50;;;;;;;;;;4990973;28;20557;-68
2021/04/11 06:33:22;;;;;;;89.47;76.57;;;;;;;;;;4981314;28;20955;-68
2021/04/11 06:35:50;;;;;;;19.60;17.60;;;;;;;;;;4980522;28;20466;-71
2021/04/11 06:38:19;;;;;;;16.03;14.63;;;;;;;;;;4991795;28;20537;-70
2021/04/11 06:40:54;;;;;;;24.77;22.33;;;;;;;;;;4991710;28;20462;-70
2021/04/11 06:43:39;;;;;;;23.70;21.50;;;;;;;;;;4986510;28;20553;-70
2021/04/11 06:46:15;;;;;;;17.77;16.33;;;;;;;;;;4981645;28;21127;-68
2021/04/11 06:49:02;;;;;;;16.57;15.13;;;;;;;;;;4993296;28;20434;-68
2021/04/11 06:51:36;;;;;;;17.20;16.00;;;;;;;;;;4981974;28;20550;-68
2021/04/11 06:54:18;;;;;;;19.93;18.57;;;;;;;;;;4989953;28;20450;-67
2021/04/11 06:56:50;;;;;;;17.00;15.80;;;;;;;;;;4989057;28;20984;-68
2021/04/11 06:59:26;;;;;;;15.57;14.57;;;;;;;;;;4992308;28;20446;-67
2021/04/11 07:02:04;;;;;;;14.57;13.73;;;;;;;;;;4991137;28;20446;-67
2021/04/11 07:04:57;;;;;;;14.87;13.97;;;;;;;;;;4980272;28;20529;-67
2021/04/11 07:07:41;;;;;;;9.10;8.50;;;;;;;;;;4980277;28;20450;-68
2021/04/11 07:10:22;;;;;;;11.93;11.03;;;;;;;;;;4991536;28;20450;-68
2021/04/11 07:13:07;;;;;;;12.00;11.10;;;;;;;;;;4983292;28;20474;-67
2021/04/11 07:15:54;;;;;;;7.87;7.27;;;;;;;;;;4980884;28;20481;-68
2021/04/11 07:18:42;;;;;;;7.37;6.83;;;;;;;;;;4985078;28;20539;-66
2021/04/11 07:21:26;;;;;;;8.47;7.83;;;;;;;;;;4973052;28;20856;-68
2021/04/11 07:24:10;;;;;;;8.30;7.70;;;;;;;;;;4976744;28;20570;-67
2021/04/11 07:26:42;;;;;;;13.30;12.30;;;;;;;;;;4972889;28;20451;-68
2021/04/11 07:29:20;;;;;;;10.00;9.23;;;;;;;;;;4989696;28;20438;-67
2021/04/11 07:31:56;;;;;;;9.57;8.80;;;;;;;;;;4992531;28;20560;-65
2021/04/11 07:34:44;;;;;;;11.23;10.43;;;;;;;;;;4990988;28;20478;-67
2021/04/11 07:37:16;;;;;;;8.00;7.30;;;;;;;;;;4950355;28;20539;-67
2021/04/11 07:39:47;;;;;;;8.07;7.40;;;;;;;;;;4985371;28;20528;-67
2021/04/11 07:42:31;;;;;;;8.00;7.40;;;;;;;;;;4987404;28;20447;-67
2021/04/11 07:45:03;;;;;;;8.53;7.93;;;;;;;;;;4984882;28;20483;-67
2021/04/11 07:47:36;;;;;;;11.50;10.67;;;;;;;;;;4987180;28;20530;-67
2021/04/11 07:50:17;;;;;;;46.00;42.30;;;;;;;;;;4990416;28;20455;-68
2021/04/11 07:53:03;;;;;;;57.97;52.50;;;;;;;;;;4990893;28;20557;-68
2021/04/11 07:55:36;;;;;;;54.77;49.23;;;;;;;;;;4981876;28;20487;-65
2021/04/11 07:58:24;;;;;;;37.43;33.70;;;;;;;;;;4985281;28;20471;-69
2021/04/11 08:01:01;;;;;;;63.63;56.80;;;;;;;;;;4978048;28;20551;-69
2021/04/11 08:03:39;;;;;;;58.67;49.30;;;;;;;;;;4973278;28;20549;-69
2021/04/11 08:06:16;;;;;;;54.50;47.80;;;;;;;;;;4983772;28;21071;-70
2021/04/11 08:08:56;;;;;;;54.60;48.70;;;;;;;;;;4989862;28;20488;-68
2021/04/11 08:11:40;;;;;;;59.03;52.17;;;;;;;;;;4995300;28;21040;-67
2021/04/11 08:14:15;;;;;;;71.90;58.30;;;;;;;;;;4987068;28;20469;-67
2021/04/11 08:16:48;;;;;;;70.27;62.70;;;;;;;;;;4994860;28;20945;-70
2021/04/11 08:19:33;;;;;;;71.57;63.87;;;;;;;;;;4981255;28;20471;-68
2021/04/11 08:22:02;;;;;;;79.13;70.20;;;;;;;;;;4980925;28;21025;-71
2021/04/11 08:24:45;;;;;;;77.73;68.93;;;;;;;;;;4992938;28;20918;-70
2021/04/11 08:27:30;;;;;;;75.37;67.10;;;;;;;;;;4994656;28;20498;-70
2021/04/11 08:30:21;;;;;;;77.67;67.90;;;;;;;;;;4993918;28;20541;-70
2021/04/11 08:32:59;;;;;;;77.87;69.73;;;;;;;;;;4978062;28;20486;-70
2021/04/11 08:35:41;;;;;;;52.57;44.87;;;;;;;;;;4990261;28;20494;-71
2021/04/11 08:38:23;;;;;;;45.17;40.23;;;;;;;;;;4990261;28;20562;-71
2021/04/11 08:40:59;;;;;;;28.53;25.73;;;;;;;;;;4990664;28;20469;-71
2021/04/11 08:43:29;;;;;;;57.57;49.43;;;;;;;;;;4975454;28;20557;-70
2021/04/11 08:46:19;;;;;;;30.60;27.50;;;;;;;;;;4979191;28;20895;-71
2021/04/11 08:48:56;;;;;;;48.70;43.60;;;;;;;;;;4975542;28;20451;-71
2021/04/11 08:51:26;;;;;;;54.47;48.40;;;;;;;;;;4987314;28;20485;-70
2021/04/11 08:53:56;;;;;;;52.83;46.97;;;;;;;;;;4992301;28;20962;-69
2021/04/11 08:56:27;;;;;;;46.43;41.43;;;;;;;;;;4992090;28;20486;-69
2021/04/11 08:58:59;;;;;;;35.87;32.20;;;;;;;;;;4993613;28;20526;-70
2021/04/11 09:01:31;;;;;;;11.63;10.83;;;;;;;;;;4988992;28;20466;-71
2021/04/11 09:04:08;;;;;;;11.37;10.57;;;;;;;;;;4986998;28;20520;-72
2021/04/11 09:06:40;;;;;;;12.87;12.03;;;;;;;;;;4987078;28;20466;-68
2021/04/11 09:09:16;;;;;;;14.10;13.07;;;;;;;;;;4991859;28;20550;-72
2021/04/11 09:11:47;;;;;;;12.60;11.90;;;;;;;;;;4992493;28;20487;-70
2021/04/11 09:14:20;;;;;;;12.93;12.03;;;;;;;;;;4981501;28;20489;-69
2021/04/11 09:16:52;;;;;;;13.10;12.20;;;;;;;;;;4981092;28;20530;-70
2021/04/11 09:19:25;;;;;;;9.37;8.77;;;;;;;;;;4990316;28;20473;-71
2021/04/11 09:21:57;;;;;;;7.90;7.27;;;;;;;;;;4991930;28;20466;-69
2021/04/11 09:24:26;;;;;;;7.30;6.70;;;;;;;;;;4995173;28;20569;-68
2021/04/11 09:27:07;;;;;;;7.20;6.60;;;;;;;;;;4986156;28;20492;-70
2021/04/11 09:29:36;;;;;;;8.33;7.63;;;;;;;;;;4990639;28;20464;-66
2021/04/11 09:32:20;;;;;;;7.37;6.73;;;;;;;;;;4981343;28;20564;-70
2021/04/11 09:34:54;;;;;;;10.73;8.27;;;;;;;;;;4987650;28;20843;-66
2021/04/11 09:37:38;;;;;;;18.10;8.97;;;;;;;;;;4981733;28;20467;-67
2021/04/11 09:40:14;;;;;;;9.07;7.63;;;;;;;;;;4992238;28;20552;-65
2021/04/11 09:42:47;;;;;;;9.30;6.70;;;;;;;;;;4989093;28;20813;-66
2021/04/11 09:45:21;;;;;;;8.97;8.07;;;;;;;;;;4983708;28;21051;-69
2021/04/11 09:47:55;;;;;;;14.50;7.00;;;;;;;;;;4986460;28;20462;-70
2021/04/11 09:50:30;;;;;;;8.63;7.70;;;;;;;;;;5011363;23;20933;-63
2021/04/11 09:53:14;;;;;;;8.17;5.83;;;;;;;;;;4989812;28;20576;-60
2021/04/11 09:55:41;;;;;;;8.70;6.47;;;;;;;;;;4988415;28;20508;-60
2021/04/11 09:58:26;;;;;;;7.33;5.67;;;;;;;;;;4997964;28;20508;-60
2021/04/11 10:00:57;;;;;;;5.40;4.90;;;;;;;;;;4984726;28;20483;-60
2021/04/11 10:03:28;;;;;;;6.73;4.30;;;;;;;;;;4992838;28;20438;-60
2021/04/11 10:06:02;;;;;;;7.13;3.80;;;;;;;;;;4974059;28;20547;-61
2021/04/11 10:08:38;;;;;;;5.30;3.43;;;;;;;;;;4988044;28;20450;-60
2021/04/11 10:11:23;;;;;;;4.33;3.80;;;;;;;;;;4990434;28;20474;-60
2021/04/11 10:14:07;;;;;;;4.00;3.60;;;;;;;;;;4988463;28;20533;-60
2021/04/11 10:16:37;;;;;;;5.40;4.87;;;;;;;;;;4988469;28;20450;-60
2021/04/11 10:19:19;;;;;;;4.87;4.27;;;;;;;;;;4980243;28;20545;-60
2021/04/11 10:21:53;;;;;;;4.30;3.90;;;;;;;;;;4984143;28;20463;-60
2021/04/11 10:24:30;;;;;;;5.50;4.47;;;;;;;;;;4992085;28;20477;-60
2021/04/11 10:27:01;;;;;;;3.57;3.27;;;;;;;;;;4992080;28;20447;-60
2021/04/11 10:29:28;;;;;;;5.63;4.13;;;;;;;;;;4989887;28;20446;-60
2021/04/11 10:31:58;;;;;;;5.00;4.57;;;;;;;;;;4992105;28;20561;-60
2021/04/11 10:34:30;;;;;;;4.50;3.80;;;;;;;;;;4992882;28;20490;-60
2021/04/11 10:37:02;;;;;;;5.90;5.50;;;;;;;;;;4988036;28;20459;-60
2021/04/11 10:39:33;;;;;;;5.00;4.60;;;;;;;;;;4973399;28;20466;-60
2021/04/11 10:42:10;;;;;;;4.50;3.70;;;;;;;;;;4989059;28;20446;-60
2021/04/11 10:44:45;;;;;;;4.30;3.90;;;;;;;;;;4991933;28;20451;-60
2021/04/11 10:47:33;;;;;;;4.60;4.30;;;;;;;;;;4990972;28;20930;-60
2021/04/11 10:50:05;;;;;;;4.50;4.10;;;;;;;;;;4990353;28;20544;-60
2021/04/11 10:52:41;;;;;;;5.50;5.10;;;;;;;;;;4987359;28;20486;-60
2021/04/11 10:55:34;;;;;;;4.30;3.53;;;;;;;;;;4991708;28;20441;-60
2021/04/11 10:58:22;;;;;;;4.27;3.97;;;;;;;;;;4986372;28;20550;-60
2021/04/11 11:00:56;;;;;;;8.93;8.33;;;;;;;;;;4988392;28;20954;-68
2021/04/11 11:03:30;;;;;;;9.97;9.37;;;;;;;;;;4972334;28;20935;-64
2021/04/11 11:06:13;;;;;;;10.63;9.93;;;;;;;;;;4977378;28;20465;-63
2021/04/11 11:09:06;;;;;;;12.20;11.40;;;;;;;;;;4991870;28;20458;-64
2021/04/11 11:11:47;;;;;;;13.00;12.10;;;;;;;;;;4961444;28;20918;-64
2021/04/11 11:14:27;;;;;;;13.23;12.33;;;;;;;;;;4972409;28;20526;-64
2021/04/11 11:17:11;;;;;;;17.47;16.17;;;;;;;;;;4984922;28;20446;-64
2021/04/11 11:19:52;;;;;;;15.80;14.70;;;;;;;;;;4991936;28;20462;-64
2021/04/11 11:22:26;;;;;;;15.83;14.63;;;;;;;;;;4990108;28;20451;-62
2021/04/11 11:25:12;;;;;;;17.53;16.17;;;;;;;;;;4992066;28;20465;-64
2021/04/11 11:27:54;;;;;;;18.77;17.37;;;;;;;;;;4987214;28;20442;-64
2021/04/11 11:30:27;;;;;;;17.83;16.43;;;;;;;;;;4961231;28;20487;-64
2021/04/11 11:33:04;;;;;;;17.73;16.30;;;;;;;;;;4972392;28;20483;-64
2021/04/11 11:35:32;;;;;;;18.57;17.17;;;;;;;;;;4974977;28;20497;-64
2021/04/11 11:38:05;;;;;;;18.40;17.00;;;;;;;;;;4991914;28;20454;-64
2021/04/11 11:40:35;;;;;;;17.43;16.13;;;;;;;;;;4993378;28;20474;-64
2021/04/11 11:43:11;;;;;;;16.43;15.10;;;;;;;;;;4994903;28;20538;-64
2021/04/11 11:45:40;;;;;;;16.43;15.23;;;;;;;;;;4993237;28;20450;-64
2021/04/11 11:48:18;;;;;;;16.30;15.10;;;;;;;;;;4996139;28;20450;-62
2021/04/11 11:50:55;;;;;;;17.93;16.53;;;;;;;;;;4988023;28;21001;-64
2021/04/11 11:53:24;;;;;;;17.20;16.00;;;;;;;;;;4976317;28;20490;-64
2021/04/11 11:55:58;;;;;;;14.83;13.73;;;;;;;;;;4988258;28;20461;-64
2021/04/11 11:58:28;;;;;;;14.00;12.97;;;;;;;;;;4995923;28;20430;-64
2021/04/11 12:00:58;;;;;;;14.17;13.17;;;;;;;;;;4986322;28;21049;-64
2021/04/11 12:03:26;;;;;;;17.03;15.70;;;;;;;;;;4985042;28;20450;-64
2021/04/11 12:05:58;;;;;;;17.43;16.10;;;;;;;;;;4982477;28;20467;-64
2021/04/11 12:08:33;;;;;;;14.33;13.33;;;;;;;;;;4986786;28;21025;-64
2021/04/11 12:11:01;;;;;;;11.70;10.80;;;;;;;;;;4983618;28;20481;-63
2021/04/11 12:13:35;;;;;;;10.97;10.17;;;;;;;;;;4985274;28;20497;-63
2021/04/11 12:16:06;;;;;;;11.40;10.60;;;;;;;;;;4992844;28;20446;-63
2021/04/11 12:18:35;;;;;;;9.87;9.10;;;;;;;;;;4990797;28;20462;-63
2021/04/11 12:21:15;;;;;;;10.57;9.67;;;;;;;;;;4994897;28;20479;-63
2021/04/11 12:23:45;;;;;;;9.27;8.63;;;;;;;;;;4992188;28;20466;-63
2021/04/11 12:26:13;;;;;;;8.50;8.00;;;;;;;;;;4989613;28;20455;-64
2021/04/11 12:28:40;;;;;;;9.13;8.23;;;;;;;;;;4985457;28;20557;-64
2021/04/11 12:31:13;;;;;;;8.17;7.63;;;;;;;;;;4990510;28;20564;-64
2021/04/11 12:33:43;;;;;;;8.97;8.30;;;;;;;;;;4994702;28;20490;-64
2021/04/11 12:36:12;;;;;;;9.23;8.53;;;;;;;;;;4977206;28;20985;-64
2021/04/11 12:38:42;;;;;;;8.23;7.70;;;;;;;;;;4975705;28;20529;-64
2021/04/11 12:41:15;;;;;;;8.80;8.20;;;;;;;;;;4991216;28;20466;-64
2021/04/11 12:43:49;;;;;;;8.30;7.73;;;;;;;;;;4993293;28;20438;-64
2021/04/11 12:46:19;;;;;;;7.77;7.17;;;;;;;;;;4993648;28;20893;-64
2021/04/11 12:48:50;;;;;;;8.60;8.00;;;;;;;;;;4981739;28;20513;-64
2021/04/11 12:51:20;;;;;;;8.63;7.77;;;;;;;;;;4992486;28;20871;-63
2021/04/11 12:53:53;;;;;;;8.67;7.97;;;;;;;;;;4994700;28;20498;-64
2021/04/11 12:56:20;;;;;;;8.67;8.03;;;;;;;;;;4987582;28;20467;-63
2021/04/11 12:58:53;;;;;;;7.87;7.27;;;;;;;;;;4990376;28;20858;-62
2021/04/11 13:01:23;;;;;;;7.23;6.73;;;;;;;;;;4978418;28;20999;-64
2021/04/11 13:03:57;;;;;;;8.00;7.40;;;;;;;;;;4992298;28;20455;-64
2021/04/11 13:06:26;;;;;;;7.33;6.83;;;;;;;;;;4980352;28;20455;-64
2021/04/11 13:09:13;;;;;;;7.30;6.70;;;;;;;;;;4981353;28;20450;-64
2021/04/11 13:11:43;;;;;;;7.47;6.87;;;;;;;;;;4983468;28;20517;-64
2021/04/11 13:14:14;;;;;;;6.43;5.93;;;;;;;;;;4981276;28;20910;-64
2021/04/11 13:16:44;;;;;;;6.80;6.20;;;;;;;;;;4980662;28;20511;-64
2021/04/11 13:19:14;;;;;;;6.17;5.67;;;;;;;;;;4978720;28;20447;-63
2021/04/11 13:21:42;;;;;;;5.73;5.37;;;;;;;;;;4975725;28;20498;-64
2021/04/11 13:24:15;;;;;;;6.53;6.03;;;;;;;;;;4985770;28;20458;-64
2021/04/11 13:26:45;;;;;;;5.90;5.50;;;;;;;;;;4976645;28;20455;-64
2021/04/11 13:29:18;;;;;;;5.20;4.90;;;;;;;;;;4984977;28;20454;-63
2021/04/11 13:31:49;;;;;;;6.43;6.03;;;;;;;;;;4985232;28;20442;-64
2021/04/11 13:34:20;;;;;;;7.17;6.57;;;;;;;;;;4983785;28;20498;-63
2021/04/11 13:36:48;;;;;;;6.70;6.30;;;;;;;;;;4992230;28;20454;-64
2021/04/11 13:39:20;;;;;;;7.77;7.23;;;;;;;;;;4991405;28;20447;-63
2021/04/11 13:41:55;;;;;;;6.07;5.67;;;;;;;;;;4985710;28;20935;-64
2021/04/11 13:44:28;;;;;;;6.73;6.13;;;;;;;;;;4991983;28;20877;-64
2021/04/11 13:46:58;;;;;;;5.23;4.93;;;;;;;;;;4993980;28;20450;-63
2021/04/11 13:49:29;;;;;;;6.00;5.60;;;;;;;;;;4979706;28;20500;-64
2021/04/11 13:51:59;;;;;;;5.20;4.90;;;;;;;;;;4992357;28;20482;-64
2021/04/11 13:54:31;;;;;;;5.53;5.13;;;;;;;;;;4987641;28;20881;-64
2021/04/11 13:57:05;;;;;;;4.60;4.30;;;;;;;;;;4991088;28;20601;-64
2021/04/11 13:59:39;;;;;;;5.30;5.00;;;;;;;;;;4984105;28;20454;-64
2021/04/11 14:02:12;;;;;;;5.50;5.17;;;;;;;;;;4975051;28;20432;-64
2021/04/11 14:04:45;;;;;;;5.50;5.20;;;;;;;;;;4984394;28;20454;-63
2021/04/11 14:07:16;;;;;;;5.70;5.40;;;;;;;;;;4990809;28;20744;-64
2021/04/11 14:09:45;;;;;;;5.07;4.77;;;;;;;;;;4984911;28;20471;-63
2021/04/11 14:12:15;;;;;;;4.80;4.50;;;;;;;;;;4993111;28;20489;-64
2021/04/11 14:14:44;;;;;;;5.10;4.77;;;;;;;;;;4985024;28;20967;-63
2021/04/11 14:17:24;;;;;;;4.60;4.30;;;;;;;;;;4973611;28;20523;-63
2021/04/11 14:19:54;;;;;;;5.10;4.70;;;;;;;;;;4973538;28;20463;-64
2021/04/11 14:22:22;;;;;;;5.13;4.83;;;;;;;;;;4991168;28;20443;-64
2021/04/11 14:24:54;;;;;;;5.47;5.07;;;;;;;;;;4992442;28;20510;-62
2021/04/11 14:27:25;;;;;;;4.20;4.00;;;;;;;;;;4989047;28;20796;-64
2021/04/11 14:29:57;;;;;;;6.13;5.23;;;;;;;;;;4981171;28;20466;-64
2021/04/11 14:32:25;;;;;;;4.80;4.50;;;;;;;;;;4992414;28;20486;-63
2021/04/11 14:34:54;;;;;;;4.53;4.23;;;;;;;;;;4992396;28;20455;-64
2021/04/11 14:37:24;;;;;;;4.90;4.60;;;;;;;;;;4975206;28;20893;-63
2021/04/11 14:39:53;;;;;;;4.87;4.47;;;;;;;;;;4991379;28;20973;-64
2021/04/11 14:42:22;;;;;;;5.67;5.27;;;;;;;;;;4990261;28;20454;-64
2021/04/11 14:44:53;;;;;;;5.10;4.73;;;;;;;;;;4992538;28;20450;-64
2021/04/11 14:47:23;;;;;;;5.60;5.30;;;;;;;;;;4975337;28;20447;-64
2021/04/11 14:49:50;;;;;;;5.47;5.07;;;;;;;;;;4976508;28;20509;-64
2021/04/11 14:52:26;;;;;;;5.20;4.80;;;;;;;;;;4977517;28;20487;-64
2021/04/11 14:54:57;;;;;;;5.90;5.50;;;;;;;;;;4982994;28;20454;-64